Terminal Aerodrome Forecast
Issued by NWS

Home | Current Version | Previous Version | Text Only | Print | Product List | Glossary On
Versions: 1 2 3 4 5 6 7 8 9 10 11 12 13 14 15 16 17 18 19
000
FTUS44 KMOB 231335 AAC
TAFBFM
TAF AMD
KBFM 231335Z 2314/2412 33004KT 4SM BR SCT002
     FM231500 07005KT P6SM SKC
     FM240500 16004KT 4SM BR SKC=

USA.gov is the U.S. government's official web portal to all federal, state and local government web resources and services.